Time;durP1;ratioP1;P1;durP2;ratioP2;P2;SDS_P1;SDS_P2;PMS_P1;PMS_P2;Temp;Humidity;BMP_temperature;BMP_pressure;BME280_temperature;BME280_humidity;BME280_pressure;Samples;Min_cycle;Max_cycle;Signal;HPM_P1;HPM_P2
2023/05/01 00:01:44;;;;;;;;;;;5.60;99.90;;;;;;2621524;46;20030;31
2023/05/01 00:04:31;;;;;;;34.13;19.85;;;5.50;99.90;;;;;;2621397;46;19941;31
2023/05/01 00:07:12;;;;;;;34.45;20.30;;;5.50;99.90;;;;;;2603056;54;21467;31
2023/05/01 00:09:47;;;;;;;33.60;20.52;;;5.40;99.90;;;;;;2603133;54;21503;31
2023/05/01 00:12:25;;;;;;;39.90;23.50;;;5.40;99.90;;;;;;2621286;46;20026;31
2023/05/01 00:15:01;;;;;;;34.95;20.20;;;5.30;99.90;;;;;;2603064;54;20045;31
2023/05/01 00:17:36;;;;;;;32.30;18.60;;;5.30;99.90;;;;;;2602838;54;20809;31
2023/05/01 00:20:13;;;;;;;29.93;17.27;;;5.30;99.90;;;;;;2603038;54;20046;31
2023/05/01 00:23:01;;;;;;;35.40;20.73;;;5.30;99.90;;;;;;2602087;54;20034;31
2023/05/01 00:25:39;;;;;;;32.00;19.93;;;5.20;99.90;;;;;;2602666;54;20871;31
2023/05/01 00:28:16;;;;;;;31.50;20.42;;;5.20;99.90;;;;;;2602754;54;20116;31
2023/05/01 00:30:51;;;;;;;31.87;20.37;;;5.10;99.90;;;;;;2602858;54;20850;31
2023/05/01 00:33:28;;;;;;;29.95;17.90;;;5.10;99.90;;;;;;2602829;54;20034;31
2023/05/01 00:36:08;;;;;;;21.08;14.43;;;5.10;99.90;;;;;;2602118;54;20030;31
2023/05/01 00:38:55;;;;;;;29.83;16.73;;;5.10;99.90;;;;;;2603013;54;20042;31
2023/05/01 00:41:35;;;;;;;25.27;17.63;;;5.10;99.90;;;;;;2621336;46;20145;31
2023/05/01 00:44:13;;;;;;;25.90;15.88;;;5.00;99.90;;;;;;2602074;54;20859;31
2023/05/01 00:46:49;;;;;;;33.15;20.65;;;5.00;99.90;;;;;;2602871;54;20923;31
2023/05/01 00:49:24;;;;;;;31.77;19.33;;;5.00;99.90;;;;;;2602478;54;20023;31
2023/05/01 00:52:02;;;;;;;32.55;19.63;;;4.90;99.90;;;;;;2602751;54;20022;31
2023/05/01 00:54:40;;;;;;;26.45;17.63;;;4.90;99.90;;;;;;2602635;54;20054;31
2023/05/01 00:57:14;;;;;;;33.55;19.10;;;4.90;99.90;;;;;;2602850;54;19934;31
2023/05/01 00:59:50;;;;;;;35.53;20.83;;;4.80;99.90;;;;;;2621250;46;20876;31
2023/05/01 01:02:28;;;;;;;29.50;17.60;;;4.90;99.90;;;;;;2601882;54;20034;31
2023/05/01 01:05:07;;;;;;;28.40;18.33;;;4.80;99.90;;;;;;2602011;54;20027;31
2023/05/01 01:07:44;;;;;;;32.10;20.65;;;4.80;99.90;;;;;;2602590;54;20110;31
2023/05/01 01:10:36;;;;;;;25.42;17.25;;;4.70;99.90;;;;;;2601772;54;20839;31
2023/05/01 01:13:14;;;;;;;37.90;21.42;;;4.70;99.90;;;;;;2602589;54;20108;31
2023/05/01 01:15:53;;;;;;;31.48;19.88;;;4.60;99.90;;;;;;2602701;54;20828;31
2023/05/01 01:18:31;;;;;;;27.87;17.70;;;4.60;99.90;;;;;;2601893;54;21164;31
2023/05/01 01:21:11;;;;;;;25.02;15.50;;;4.50;99.90;;;;;;2602654;54;20089;31
2023/05/01 01:24:22;;;;;;;24.60;16.80;;;4.50;99.90;;;;;;2602776;54;20744;31
2023/05/01 01:27:15;;;;;;;24.90;15.90;;;4.50;99.90;;;;;;2602521;54;20744;31
2023/05/01 01:30:05;;;;;;;34.00;19.52;;;4.50;99.90;;;;;;2602569;54;20883;31
2023/05/01 01:33:17;;;;;;;29.77;18.95;;;4.40;99.90;;;;;;2620813;47;20055;31
2023/05/01 01:35:59;;;;;;;27.50;16.65;;;4.40;99.90;;;;;;2602879;54;19942;31
2023/05/01 01:38:38;;;;;;;34.85;23.55;;;4.40;99.90;;;;;;2603208;54;20919;31
2023/05/01 01:41:15;;;;;;;41.45;23.55;;;4.30;99.90;;;;;;2621863;46;20888;31
2023/05/01 01:43:56;;;;;;;32.28;19.70;;;4.20;99.90;;;;;;2603545;54;20062;31
2023/05/01 01:46:37;;;;;;;27.50;17.58;;;4.20;99.90;;;;;;2621934;46;20026;31
2023/05/01 01:49:12;;;;;;;33.85;20.05;;;4.20;99.90;;;;;;2621749;46;21500;31
2023/05/01 01:51:52;;;;;;;36.45;20.10;;;4.20;99.90;;;;;;2603375;54;20048;31
2023/05/01 01:54:41;;;;;;;32.00;18.17;;;4.20;99.90;;;;;;2621589;46;20081;31
2023/05/01 01:57:20;;;;;;;31.58;18.58;;;4.20;99.90;;;;;;2603717;54;20770;31
2023/05/01 02:00:00;;;;;;;27.83;15.82;;;4.10;99.90;;;;;;2603564;54;20852;31
2023/05/01 02:02:38;;;;;;;33.25;17.38;;;4.20;99.90;;;;;;2603555;54;20897;31
2023/05/01 02:05:16;;;;;;;28.90;17.25;;;4.10;99.90;;;;;;2602383;54;20871;31
2023/05/01 02:07:54;;;;;;;29.02;15.98;;;4.10;99.90;;;;;;2603407;54;20516;31
2023/05/01 02:10:29;;;;;;;27.35;15.85;;;4.10;99.90;;;;;;2622030;46;20092;31
2023/05/01 02:13:04;;;;;;;23.30;13.77;;;4.10;99.90;;;;;;2603236;54;20062;31
2023/05/01 02:15:42;;;;;;;27.70;16.25;;;4.00;99.90;;;;;;2603126;54;20907;31
2023/05/01 02:18:16;;;;;;;32.13;18.25;;;4.00;99.90;;;;;;2603310;54;20899;31
2023/05/01 02:20:51;;;;;;;30.37;16.80;;;3.90;99.90;;;;;;2603305;54;20045;31
2023/05/01 02:23:29;;;;;;;28.47;16.03;;;3.90;99.90;;;;;;2603296;54;19950;31
2023/05/01 02:26:06;;;;;;;25.33;14.52;;;3.90;99.90;;;;;;2621856;46;20415;31
2023/05/01 02:28:40;;;;;;;27.67;15.83;;;3.80;99.90;;;;;;2621487;46;22215;31
2023/05/01 02:31:15;;;;;;;27.35;15.20;;;3.80;99.90;;;;;;2602871;54;20937;31
2023/05/01 02:33:50;;;;;;;27.05;13.95;;;3.80;99.90;;;;;;2603343;54;20022;31
2023/05/01 02:36:26;;;;;;;26.00;14.90;;;3.80;99.90;;;;;;2608081;39;21418;31
2023/05/01 02:39:06;;;;;;;20.65;11.75;;;3.80;99.90;;;;;;2603303;54;20285;31
2023/05/01 02:41:42;;;;;;;21.63;12.03;;;3.70;99.90;;;;;;2603337;54;20031;31
2023/05/01 02:44:17;;;;;;;22.65;14.05;;;3.70;99.90;;;;;;2603325;54;19950;31
2023/05/01 02:46:53;;;;;;;23.75;14.57;;;3.70;99.90;;;;;;2602768;54;20938;31
2023/05/01 02:49:28;;;;;;;24.52;14.43;;;3.70;99.90;;;;;;2603186;54;20042;31
2023/05/01 02:52:05;;;;;;;;;;;3.70;99.90;;;;;;2603428;54;20027;31
2023/05/01 02:54:53;;;;;;;21.63;12.73;;;3.60;99.90;;;;;;2602217;54;21380;31
2023/05/01 02:57:29;;;;;;;21.00;10.77;;;3.60;99.90;;;;;;2603100;54;20914;31
2023/05/01 03:00:08;;;;;;;24.30;14.10;;;3.50;99.90;;;;;;2603191;54;20819;31
2023/05/01 03:02:43;;;;;;;26.60;16.25;;;3.40;99.90;;;;;;2603058;54;20069;31
2023/05/01 03:05:20;;;;;;;35.38;21.33;;;3.50;99.90;;;;;;2619246;46;20861;31
2023/05/01 03:07:57;;;;;;;;;;;3.40;99.90;;;;;;2603364;54;20113;31
2023/05/01 03:10:33;;;;;;;;;;;3.40;99.90;;;;;;2682742;39;20906;31
2023/05/01 03:13:10;;;;;;;52.97;30.20;;;3.40;99.90;;;;;;2603289;54;20036;31
2023/05/01 03:15:47;;;;;;;46.73;29.23;;;3.40;99.90;;;;;;2621565;46;20038;31
2023/05/01 03:18:25;;;;;;;47.78;28.30;;;3.30;99.90;;;;;;2603084;54;20038;31
2023/05/01 03:21:21;;;;;;;29.73;18.93;;;3.30;99.90;;;;;;2603169;54;19984;31
2023/05/01 03:24:02;;;;;;;28.27;16.33;;;3.20;99.90;;;;;;2602147;54;20243;31
2023/05/01 03:26:41;;;;;;;23.02;14.13;;;3.20;99.90;;;;;;2621479;46;22211;31
2023/05/01 03:29:20;;;;;;;19.98;13.40;;;3.20;99.90;;;;;;2621620;46;20035;31
2023/05/01 03:31:56;;;;;;;19.67;12.38;;;3.20;99.90;;;;;;2603190;54;20030;31
2023/05/01 03:34:31;;;;;;;;;;;3.20;99.90;;;;;;2603213;54;20941;31
2023/05/01 03:37:10;;;;;;;18.15;11.00;;;3.20;99.90;;;;;;2603080;54;19942;31
2023/05/01 03:39:46;;;;;;;19.75;11.60;;;3.20;99.90;;;;;;2602968;54;20022;31
2023/05/01 03:42:46;;;;;;;21.27;14.40;;;3.20;99.90;;;;;;2603136;54;20023;31
2023/05/01 03:45:27;;;;;;;21.10;13.27;;;3.20;99.90;;;;;;2603135;54;20027;31
2023/05/01 03:48:05;;;;;;;18.30;11.70;;;3.20;99.90;;;;;;2617719;46;20113;31
2023/05/01 03:50:44;;;;;;;19.42;10.85;;;3.20;99.90;;;;;;2608478;39;21495;31
2023/05/01 03:53:18;;;;;;;18.55;11.43;;;3.20;99.90;;;;;;2618650;39;21513;31
2023/05/01 03:55:57;;;;;;;21.23;12.35;;;3.30;99.90;;;;;;2621105;46;20941;31
2023/05/01 03:58:36;;;;;;;19.20;12.15;;;3.40;99.90;;;;;;2602954;54;20895;31
2023/05/01 04:01:12;;;;;;;17.30;10.88;;;3.50;99.90;;;;;;2602487;54;20038;31
2023/05/01 04:03:53;;;;;;;19.20;10.90;;;3.50;99.90;;;;;;2618445;39;20258;31
2023/05/01 04:06:31;;;;;;;18.90;10.77;;;3.70;99.90;;;;;;2602987;54;20034;31
2023/05/01 04:09:07;;;;;;;16.05;10.15;;;3.90;99.90;;;;;;2602839;54;20912;31
2023/05/01 04:11:44;;;;;;;15.60;9.88;;;4.10;99.90;;;;;;2603086;54;20046;31
2023/05/01 04:14:22;;;;;;;20.15;10.45;;;4.30;99.90;;;;;;2603062;54;20904;31
2023/05/01 04:17:02;;;;;;;17.40;9.15;;;4.50;99.90;;;;;;2621377;46;20022;31
2023/05/01 04:19:43;;;;;;;17.77;10.02;;;4.60;99.90;;;;;;2602977;54;20105;31
2023/05/01 04:22:19;;;;;;;18.13;10.32;;;4.90;99.90;;;;;;2602781;54;20519;31
2023/05/01 04:24:55;;;;;;;17.73;9.75;;;5.00;99.90;;;;;;2628654;39;20342;31
2023/05/01 04:27:30;;;;;;;17.02;10.32;;;5.30;99.90;;;;;;2602869;54;20883;31
2023/05/01 04:30:12;;;;;;;18.27;8.80;;;5.40;99.90;;;;;;2621221;46;20026;31
2023/05/01 04:32:48;;;;;;;14.38;10.07;;;5.70;99.90;;;;;;2601988;54;20259;31
2023/05/01 04:35:27;;;;;;;19.10;10.13;;;5.80;99.90;;;;;;2602768;54;20041;31
2023/05/01 04:38:01;;;;;;;16.95;10.75;;;5.90;99.90;;;;;;2602880;54;20041;31
2023/05/01 04:40:39;;;;;;;17.17;9.55;;;6.10;99.90;;;;;;2602144;54;21271;31
2023/05/01 04:43:15;;;;;;;14.88;9.18;;;6.30;99.90;;;;;;2602904;54;20033;31
2023/05/01 04:45:55;;;;;;;17.43;9.93;;;6.50;99.90;;;;;;2621517;46;20026;31
2023/05/01 04:48:30;;;;;;;20.17;9.75;;;6.70;99.90;;;;;;2602942;54;20029;31
2023/05/01 04:51:07;;;;;;;15.60;9.30;;;7.00;99.90;;;;;;2603003;54;20040;31
2023/05/01 04:53:43;;;;;;;14.98;10.23;;;7.30;99.90;;;;;;2602830;54;20042;31
2023/05/01 04:56:33;;;;;;;12.90;9.03;;;7.60;99.90;;;;;;2603049;54;20023;31
2023/05/01 04:59:08;;;;;;;12.98;8.27;;;7.80;99.90;;;;;;2603123;54;20031;31
2023/05/01 05:01:46;;;;;;;11.93;8.65;;;8.20;99.90;;;;;;2602858;54;21040;31
2023/05/01 05:04:22;;;;;;;15.48;9.35;;;8.40;99.90;;;;;;2602167;54;20849;31
2023/05/01 05:07:01;;;;;;;15.25;8.65;;;8.70;99.90;;;;;;2602016;54;20966;31
2023/05/01 05:09:57;;;;;;;12.35;7.88;;;9.00;99.90;;;;;;2602873;54;20023;31
2023/05/01 05:12:38;;;;;;;14.63;8.35;;;9.20;99.90;;;;;;2620975;46;20919;31
2023/05/01 05:15:15;;;;;;;15.40;9.27;;;9.50;99.90;;;;;;2603044;54;20078;31
2023/05/01 05:17:54;;;;;;;13.03;8.47;;;9.70;99.90;;;;;;2602712;54;20042;31
2023/05/01 05:20:33;;;;;;;14.45;8.60;;;9.80;99.90;;;;;;2602777;54;20744;31
2023/05/01 05:23:08;;;;;;;15.52;9.63;;;10.00;99.90;;;;;;2618611;39;20395;31
2023/05/01 05:25:44;;;;;;;19.33;10.27;;;10.20;99.90;;;;;;2603051;54;20882;31
2023/05/01 05:28:22;;;;;;;15.68;9.43;;;10.40;99.90;;;;;;2633638;39;20914;31
2023/05/01 05:30:58;;;;;;;16.80;10.32;;;10.50;99.90;;;;;;2602952;54;20843;31
2023/05/01 05:33:37;;;;;;;16.10;9.52;;;10.60;99.90;;;;;;2602809;54;20823;31
2023/05/01 05:36:15;;;;;;;16.77;10.03;;;10.70;99.90;;;;;;2602576;54;20026;31
2023/05/01 05:38:51;;;;;;;15.30;9.23;;;10.80;99.90;;;;;;2602851;54;20042;31
2023/05/01 05:41:28;;;;;;;18.23;10.17;;;11.00;99.90;;;;;;2602982;54;20093;31
2023/05/01 05:44:09;;;;;;;18.45;10.93;;;11.10;99.90;;;;;;2602146;54;20018;31
2023/05/01 05:46:46;;;;;;;16.37;9.93;;;11.30;99.90;;;;;;2602797;54;20103;31
2023/05/01 05:49:38;;;;;;;20.27;10.52;;;11.50;99.90;;;;;;2602891;54;20027;31
2023/05/01 05:52:13;;;;;;;16.23;10.35;;;11.70;99.90;;;;;;2602874;54;20022;31
2023/05/01 05:54:51;;;;;;;19.25;11.25;;;11.90;99.90;;;;;;2602868;54;20030;31
2023/05/01 05:57:27;;;;;;;19.63;10.90;;;12.10;99.90;;;;;;2638696;39;20394;31
2023/05/01 06:00:08;;;;;;;18.83;10.82;;;12.20;99.90;;;;;;2602022;54;20032;31
2023/05/01 06:02:48;;;;;;;16.73;10.93;;;12.40;99.90;;;;;;2602878;54;20807;31
2023/05/01 06:05:28;;;;;;;16.20;11.00;;;12.60;99.90;;;;;;2602690;54;20238;31
2023/05/01 06:08:09;;;;;;;15.65;10.85;;;12.80;99.90;;;;;;2602726;54;21446;31
2023/05/01 06:10:46;;;;;;;19.23;10.50;;;13.00;99.90;;;;;;2602656;54;20857;31
2023/05/01 06:13:23;;;;;;;18.73;10.27;;;13.20;99.90;;;;;;2602712;54;20242;31
2023/05/01 06:16:00;;;;;;;17.83;9.85;;;13.30;99.90;;;;;;2602674;54;20030;31
2023/05/01 06:18:36;;;;;;;15.43;9.77;;;13.50;99.90;;;;;;2602569;54;20031;31
2023/05/01 06:21:15;;;;;;;18.45;9.75;;;13.80;99.90;;;;;;2602560;54;20089;31
2023/05/01 06:23:55;;;;;;;15.15;9.15;;;14.00;99.90;;;;;;2603086;54;20085;31
2023/05/01 06:26:37;;;;;;;15.80;9.32;;;14.00;99.90;;;;;;2603351;54;25160;31
2023/05/01 06:29:13;;;;;;;;;;;14.40;99.90;;;;;;2603652;54;20740;31
2023/05/01 06:31:49;;;;;;;15.38;9.15;;;14.40;99.90;;;;;;2622231;46;20742;31
2023/05/01 06:34:25;;;;;;;15.35;8.40;;;14.50;99.90;;;;;;2603598;54;20086;31
2023/05/01 06:37:06;;;;;;;17.30;8.80;;;14.70;99.90;;;;;;2603335;54;20899;31
2023/05/01 06:39:44;;;;;;;14.57;7.95;;;14.90;99.90;;;;;;2603681;54;20904;31
2023/05/01 06:42:20;;;;;;;12.32;7.40;;;15.10;99.90;;;;;;2603341;54;21272;31
2023/05/01 06:44:57;;;;;;;10.18;6.88;;;15.30;99.90;;;;;;2602963;54;20752;31
2023/05/01 06:47:35;;;;;;;13.45;7.88;;;15.40;99.90;;;;;;2603439;54;20870;31
2023/05/01 06:50:12;;;;;;;14.70;7.95;;;15.60;99.90;;;;;;2603507;54;20050;31
2023/05/01 06:52:52;;;;;;;12.73;7.07;;;15.60;99.90;;;;;;2603552;54;20852;31
2023/05/01 06:55:29;;;;;;;14.57;6.95;;;15.80;99.90;;;;;;2621631;46;20034;31
2023/05/01 06:58:07;;;;;;;11.80;6.70;;;15.90;99.90;;;;;;2602614;54;20027;31
2023/05/01 07:00:59;;;;;;;11.13;6.80;;;16.10;99.90;;;;;;2621836;46;20101;31
2023/05/01 07:03:33;;;;;;;12.40;6.97;;;16.20;99.90;;;;;;2603366;54;20042;31
2023/05/01 07:06:15;;;;;;;10.90;5.70;;;16.30;99.90;;;;;;2621833;46;20105;31
2023/05/01 07:08:50;;;;;;;12.13;6.55;;;16.40;99.60;;;;;;2621575;46;20895;31
2023/05/01 07:11:30;;;;;;;9.13;5.95;;;16.50;99.90;;;;;;2603414;54;20165;31
2023/05/01 07:14:07;;;;;;;11.90;6.27;;;16.60;99.30;;;;;;2603518;54;20022;31
2023/05/01 07:16:43;;;;;;;10.73;6.30;;;16.70;98.40;;;;;;2621490;46;20894;31
2023/05/01 07:19:20;;;;;;;11.70;6.73;;;16.50;96.70;;;;;;2621919;46;19937;31
2023/05/01 07:22:00;;;;;;;10.43;5.72;;;16.50;96.10;;;;;;2603226;54;20112;31
2023/05/01 07:24:37;;;;;;;9.15;6.20;;;16.30;95.70;;;;;;2603348;54;20026;31
2023/05/01 07:27:17;;;;;;;9.18;6.22;;;16.30;95.80;;;;;;2603434;54;20773;31
2023/05/01 07:29:55;;;;;;;9.80;6.25;;;16.50;96.00;;;;;;2718309;31;20409;31
2023/05/01 07:32:31;;;;;;;9.60;5.60;;;16.60;96.60;;;;;;2603245;54;20030;31
2023/05/01 07:35:10;;;;;;;9.27;5.93;;;16.70;96.00;;;;;;2603345;54;20858;31
2023/05/01 07:37:50;;;;;;;11.25;5.53;;;16.80;95.00;;;;;;2603372;54;20037;31
2023/05/01 07:40:26;;;;;;;11.00;5.93;;;16.80;93.40;;;;;;2603368;54;20866;31
2023/05/01 07:43:10;;;;;;;10.35;5.07;;;16.60;92.20;;;;;;2603275;54;20033;31
2023/05/01 07:45:48;;;;;;;10.77;5.30;;;16.50;92.90;;;;;;2603430;54;20840;31
2023/05/01 07:48:25;;;;;;;12.15;4.75;;;16.70;93.50;;;;;;2621823;46;20047;31
2023/05/01 07:51:03;;;;;;;9.60;5.05;;;16.70;91.80;;;;;;2621558;46;21006;31
2023/05/01 07:53:41;;;;;;;12.37;4.87;;;16.60;91.90;;;;;;2603211;54;20815;31
2023/05/01 07:56:18;;;;;;;8.98;4.95;;;16.70;92.10;;;;;;2603233;54;21277;31
2023/05/01 08:01:34;;;;;;;12.17;5.07;;;16.80;91.90;;;;;;2621478;46;20034;31
2023/05/01 08:04:10;;;;;;;10.13;4.35;;;17.00;91.80;;;;;;2603323;54;20996;31
2023/05/01 08:06:46;;;;;;;9.60;4.83;;;17.00;90.10;;;;;;2621806;46;20030;31
2023/05/01 08:09:25;;;;;;;8.70;3.80;;;17.00;91.30;;;;;;2621408;46;19937;31
2023/05/01 08:12:02;;;;;;;6.97;3.97;;;17.20;91.40;;;;;;2603275;54;20046;31
2023/05/01 08:14:40;;;;;;;7.68;4.15;;;17.50;91.50;;;;;;2603267;54;20851;31
2023/05/01 08:17:15;;;;;;;8.88;4.07;;;17.50;90.00;;;;;;2603090;54;21524;31
2023/05/01 08:19:57;;;;;;;6.80;3.53;;;17.50;88.90;;;;;;2603001;54;21711;31
2023/05/01 08:22:33;;;;;;;7.22;3.83;;;17.60;90.30;;;;;;2603302;54;19938;31
2023/05/01 08:25:10;;;;;;;;;;;17.40;89.50;;;;;;2621695;46;20125;31
2023/05/01 08:27:51;;;;;;;10.85;5.03;;;17.40;89.50;;;;;;2704665;39;21268;31
2023/05/01 08:30:32;;;;;;;8.13;4.30;;;17.40;88.70;;;;;;2603228;54;20748;31
2023/05/01 08:33:08;;;;;;;10.65;4.85;;;17.30;89.00;;;;;;2629205;39;21443;31
2023/05/01 08:35:50;;;;;;;8.23;4.20;;;17.50;88.80;;;;;;2603132;54;20426;31
2023/05/01 08:38:27;;;;;;;8.10;4.45;;;17.70;88.40;;;;;;2608829;39;21308;31
2023/05/01 08:41:07;;;;;;;12.05;5.25;;;17.60;86.80;;;;;;2621679;46;20030;31
2023/05/01 08:43:44;;;;;;;10.33;4.07;;;17.60;87.00;;;;;;2603257;54;20026;31
2023/05/01 08:46:25;;;;;;;8.45;4.00;;;17.80;89.40;;;;;;2602822;54;20077;31
2023/05/01 08:49:01;;;;;;;6.05;3.67;;;17.80;85.10;;;;;;2701616;39;21558;31
2023/05/01 08:51:43;;;;;;;10.52;3.88;;;17.80;85.00;;;;;;2621310;46;20038;31
2023/05/01 08:54:21;;;;;;;9.55;4.35;;;17.70;84.00;;;;;;2603874;46;22406;31
2023/05/01 08:56:57;;;;;;;7.60;3.33;;;17.40;84.30;;;;;;2636963;39;20434;31
2023/05/01 08:59:37;;;;;;;8.30;3.85;;;17.50;87.10;;;;;;2603084;54;20046;31
2023/05/01 09:02:17;;;;;;;7.25;3.60;;;17.70;84.40;;;;;;2602234;54;20872;31
2023/05/01 09:04:53;;;;;;;8.40;3.80;;;17.90;84.50;;;;;;2603245;54;20027;31
2023/05/01 09:07:31;;;;;;;8.75;3.97;;;18.00;81.70;;;;;;2602354;54;20056;31
2023/05/01 09:13:05;;;;;;;6.13;3.42;;;18.30;82.50;;;;;;2602910;54;20245;31
2023/05/01 09:15:47;;;;;;;9.47;3.70;;;18.40;81.50;;;;;;2603331;54;20073;31
2023/05/01 09:18:34;;;;;;;8.75;3.92;;;18.60;81.70;;;;;;2621202;46;20188;31
2023/05/01 09:21:18;;;;;;;9.27;4.15;;;18.60;80.50;;;;;;2602723;54;20843;31
2023/05/01 09:24:05;;;;;;;8.63;4.75;;;18.60;80.90;;;;;;2603155;54;20031;31
2023/05/01 09:26:45;;;;;;;9.65;4.65;;;18.60;80.40;;;;;;2602893;54;20033;31
2023/05/01 09:29:42;;;;;;;7.85;4.65;;;18.60;80.60;;;;;;2602869;54;20854;31
2023/05/01 09:32:30;;;;;;;11.18;5.35;;;18.50;79.50;;;;;;2602795;54;20866;31
2023/05/01 09:35:24;;;;;;;9.33;4.93;;;18.90;82.50;;;;;;2602781;54;20133;31
2023/05/01 09:38:05;;;;;;;6.37;3.97;;;19.00;81.60;;;;;;2602860;54;20038;31
2023/05/01 09:41:01;;;;;;;8.60;4.10;;;19.20;80.00;;;;;;2602111;54;20053;31
2023/05/01 09:43:51;;;;;;;8.70;3.75;;;19.00;79.00;;;;;;2602791;54;20058;31
2023/05/01 09:46:35;;;;;;;8.13;4.50;;;18.90;79.30;;;;;;2620373;47;20973;31
2023/05/01 09:49:18;;;;;;;7.75;3.75;;;18.80;79.80;;;;;;2602458;54;20022;31
2023/05/01 09:55:12;;;;;;;8.23;3.85;;;18.60;77.30;;;;;;2620972;47;20081;31
2023/05/01 09:57:53;;;;;;;9.80;4.00;;;18.60;77.40;;;;;;2602768;54;20026;31
2023/05/01 10:00:47;;;;;;;;;;;;;;;;;;;;;
2023/05/01 10:03:31;;;;;;;7.43;3.85;;;18.60;78.10;;;;;;2603583;54;20026;31
2023/05/01 10:06:21;;;;;;;7.47;3.40;;;18.80;79.70;;;;;;2621896;46;20929;31
2023/05/01 10:09:16;;;;;;;7.57;3.53;;;18.90;77.60;;;;;;2716853;39;20345;31
2023/05/01 10:11:54;;;;;;;7.80;3.25;;;19.10;77.30;;;;;;2603350;54;20083;31
2023/05/01 10:14:55;;;;;;;7.05;3.72;;;19.30;76.80;;;;;;2603368;54;20030;31
2023/05/01 10:17:36;;;;;;;8.60;3.57;;;19.30;77.90;;;;;;2603601;54;20838;31
2023/05/01 10:20:17;;;;;;;8.20;3.50;;;19.40;76.00;;;;;;2622095;46;20038;31
2023/05/01 10:22:59;;;;;;;8.77;3.50;;;19.50;76.30;;;;;;2654798;39;20861;31
2023/05/01 10:25:37;;;;;;;6.95;3.40;;;19.50;75.30;;;;;;2602832;54;20064;31
2023/05/01 10:28:21;;;;;;;7.88;3.55;;;19.70;75.00;;;;;;2620940;46;19930;31
2023/05/01 10:31:07;;;;;;;7.97;3.30;;;19.60;73.90;;;;;;2603782;54;20033;31
2023/05/01 10:33:47;;;;;;;8.57;4.03;;;19.60;74.60;;;;;;2603695;54;20026;31
2023/05/01 10:36:32;;;;;;;11.70;4.50;;;19.60;74.60;;;;;;2602824;54;20246;31
2023/05/01 10:39:28;;;;;;;7.15;3.30;;;19.70;74.70;;;;;;2603171;54;20938;31
2023/05/01 10:42:19;;;;;;;6.07;2.95;;;19.80;74.30;;;;;;2603734;54;19946;31
2023/05/01 10:45:20;;;;;;;6.82;3.20;;;19.90;73.00;;;;;;2603468;54;20117;31
2023/05/01 10:48:04;;;;;;;8.23;3.45;;;19.80;67.00;;;;;;2603507;54;20027;31
2023/05/01 10:54:31;;;;;;;10.10;5.60;;;19.70;69.60;;;;;;2603602;54;20042;31
2023/05/01 10:59:59;;;;;;;;;;;19.80;71.50;;;;;;2602935;54;20061;31
2023/05/01 11:02:36;;;;;;;15.95;6.80;;;19.80;71.40;;;;;;2603493;54;20644;31
2023/05/01 11:05:19;;;;;;;8.43;2.47;;;19.70;69.90;;;;;;2603663;54;20077;31
2023/05/01 11:08:34;;;;;;;5.72;2.47;;;19.70;69.10;;;;;;2667628;39;21493;31
2023/05/01 11:14:02;;;;;;;8.43;2.78;;;19.50;67.30;;;;;;2621648;46;20879;31
2023/05/01 11:16:48;;;;;;;6.38;2.10;;;19.50;66.30;;;;;;2621837;46;20874;31
2023/05/01 11:20:00;;;;;;;7.18;2.60;;;19.40;64.10;;;;;;2603347;54;20870;31
2023/05/01 11:22:55;;;;;;;5.95;2.50;;;19.50;67.10;;;;;;2621605;46;20031;31
2023/05/01 11:25:33;;;;;;;5.32;2.40;;;19.60;68.90;;;;;;2603371;54;20840;31
2023/05/01 11:28:16;;;;;;;7.88;2.55;;;19.60;69.30;;;;;;2604642;46;20821;31
2023/05/01 11:30:57;;;;;;;5.75;2.55;;;19.50;65.60;;;;;;2606742;46;20947;31
2023/05/01 11:33:40;;;;;;;5.88;2.30;;;19.60;68.30;;;;;;2603139;54;20852;31
2023/05/01 11:36:23;;;;;;;6.47;2.70;;;19.70;69.00;;;;;;2603379;54;20834;31
2023/05/01 11:39:16;;;;;;;5.17;2.47;;;19.80;67.10;;;;;;2603502;54;20026;31
2023/05/01 11:42:03;;;;;;;6.17;2.27;;;19.80;64.70;;;;;;2603026;54;20752;31
2023/05/01 11:44:46;;;;;;;5.27;2.73;;;19.70;63.20;;;;;;2603099;54;20260;31
2023/05/01 11:47:28;;;;;;;6.87;2.50;;;19.50;63.60;;;;;;2621768;46;20023;31
2023/05/01 11:50:15;;;;;;;5.00;2.50;;;19.50;63.50;;;;;;2621639;46;20029;31
2023/05/01 11:52:53;;;;;;;6.15;2.60;;;19.40;65.10;;;;;;2603116;54;20968;31
2023/05/01 11:55:37;;;;;;;5.25;2.20;;;19.40;63.10;;;;;;2603169;54;20736;31
2023/05/01 11:58:15;;;;;;;6.45;2.80;;;19.30;60.80;;;;;;2629182;39;20281;31
2023/05/01 12:00:55;;;;;;;5.80;3.00;;;19.20;62.90;;;;;;2621548;46;20064;31
2023/05/01 12:03:45;;;;;;;4.10;2.55;;;19.20;64.60;;;;;;2603111;54;20751;31
2023/05/01 12:06:25;;;;;;;3.58;2.50;;;19.10;61.90;;;;;;2603066;54;20031;31
2023/05/01 12:09:01;;;;;;;4.45;2.53;;;19.10;62.10;;;;;;2603364;54;20151;31
2023/05/01 12:11:45;;;;;;;7.25;2.58;;;19.00;63.00;;;;;;2603038;54;20240;31
2023/05/01 12:14:23;;;;;;;5.27;2.20;;;19.00;62.30;;;;;;2603215;54;20029;31
2023/05/01 12:17:03;;;;;;;5.00;2.75;;;19.00;60.20;;;;;;2603199;54;20969;31
2023/05/01 12:19:53;;;;;;;5.45;2.70;;;18.90;61.50;;;;;;2603045;54;20066;31
2023/05/01 12:22:30;;;;;;;5.00;2.40;;;18.80;63.30;;;;;;2621186;46;20026;31
2023/05/01 12:25:13;;;;;;;7.47;2.40;;;18.90;62.70;;;;;;2603255;54;20038;31
2023/05/01 12:27:59;;;;;;;6.18;2.63;;;18.90;64.20;;;;;;2603117;54;20780;31
2023/05/01 12:30:34;;;;;;;5.50;2.08;;;19.00;63.90;;;;;;2602926;54;21487;31
2023/05/01 12:33:26;;;;;;;4.65;2.13;;;18.90;61.70;;;;;;2621523;46;21002;31
2023/05/01 12:36:24;;;;;;;2.88;2.08;;;19.00;61.00;;;;;;2602376;54;20893;31
2023/05/01 12:39:03;;;;;;;5.07;2.40;;;19.10;58.50;;;;;;2620950;46;20030;31
2023/05/01 12:41:42;;;;;;;4.75;2.50;;;19.00;60.70;;;;;;2601814;54;20031;31
2023/05/01 12:44:32;;;;;;;3.53;2.83;;;19.00;62.40;;;;;;2603214;54;20091;31
2023/05/01 12:47:16;;;;;;;3.92;2.67;;;19.10;64.90;;;;;;2639287;39;20278;31
2023/05/01 12:50:03;;;;;;;5.78;2.03;;;19.20;65.70;;;;;;2602853;54;20022;31
2023/05/01 12:52:44;;;;;;;6.03;2.30;;;19.20;62.50;;;;;;2621532;46;20106;31
2023/05/01 12:55:21;;;;;;;5.15;3.10;;;19.30;63.20;;;;;;2602930;54;20411;31
2023/05/01 12:57:59;;;;;;;5.32;2.70;;;19.30;63.20;;;;;;2621234;46;20779;31
2023/05/01 13:00:47;;;;;;;5.85;2.80;;;19.30;63.40;;;;;;2602973;54;20774;31
2023/05/01 13:03:26;;;;;;;5.28;3.05;;;19.30;62.60;;;;;;2602895;54;20026;31
2023/05/01 13:06:04;;;;;;;8.38;2.75;;;19.30;64.10;;;;;;2620896;46;20918;31
2023/05/01 13:08:44;;;;;;;7.57;3.13;;;19.30;63.80;;;;;;2602877;54;20763;31
2023/05/01 13:11:20;;;;;;;5.10;3.20;;;19.30;63.90;;;;;;2602790;54;20058;31
2023/05/01 13:13:58;;;;;;;5.30;2.65;;;19.30;63.00;;;;;;2602084;54;20084;31
2023/05/01 13:16:48;;;;;;;4.20;3.10;;;19.40;64.60;;;;;;2602790;54;20875;31
2023/05/01 13:22:02;;;;;;;8.18;3.42;;;19.50;65.20;;;;;;2602511;54;20773;31
2023/05/01 13:24:37;;;;;;;6.63;3.20;;;19.50;64.60;;;;;;2621059;47;20877;31
2023/05/01 13:27:14;;;;;;;5.57;3.03;;;19.50;65.80;;;;;;2621209;47;20038;31
2023/05/01 13:30:02;;;;;;;6.95;3.10;;;19.50;65.90;;;;;;2621323;47;20153;31
2023/05/01 13:32:41;;;;;;;7.07;3.25;;;19.50;65.40;;;;;;2603069;54;20038;31
2023/05/01 13:35:38;;;;;;;6.72;3.22;;;19.50;65.00;;;;;;2603497;54;21064;31
2023/05/01 13:38:22;;;;;;;5.63;2.47;;;19.50;63.20;;;;;;2603614;54;20031;31
2023/05/01 13:41:02;;;;;;;7.93;3.00;;;19.60;65.30;;;;;;2621827;46;20823;31
2023/05/01 13:43:38;;;;;;;5.43;3.60;;;19.60;66.60;;;;;;2603644;54;20026;31
2023/05/01 13:46:18;;;;;;;7.60;3.80;;;19.60;65.30;;;;;;2603631;54;20927;31
2023/05/01 13:49:01;;;;;;;6.60;3.13;;;19.60;65.90;;;;;;2603748;54;20026;31
2023/05/01 13:51:45;;;;;;;6.32;2.88;;;19.60;66.60;;;;;;2622305;46;20921;31
2023/05/01 13:54:30;;;;;;;8.82;3.45;;;19.60;66.10;;;;;;2622320;46;20119;31
2023/05/01 13:57:10;;;;;;;6.85;3.10;;;19.70;65.10;;;;;;2603497;54;20901;31
2023/05/01 13:59:48;;;;;;;5.88;3.55;;;19.60;66.10;;;;;;2620190;46;21012;31
2023/05/01 14:02:26;;;;;;;7.95;3.10;;;19.50;65.90;;;;;;2620867;46;20029;31
2023/05/01 14:05:04;;;;;;;6.63;3.10;;;19.50;67.10;;;;;;2621649;46;25140;31
2023/05/01 14:07:50;;;;;;;7.28;3.00;;;19.60;68.20;;;;;;2621953;46;20093;31
2023/05/01 14:10:41;;;;;;;5.15;3.03;;;19.50;65.60;;;;;;2603604;54;20878;31
2023/05/01 14:13:24;;;;;;;6.87;2.93;;;19.50;67.40;;;;;;2622156;46;20022;31
2023/05/01 14:15:59;;;;;;;5.50;3.50;;;19.50;66.60;;;;;;2603263;54;20710;31
2023/05/01 14:18:39;;;;;;;4.85;2.95;;;19.60;66.90;;;;;;2603458;54;20042;31
2023/05/01 14:21:13;;;;;;;8.67;3.10;;;19.60;68.40;;;;;;2619811;46;20034;31
2023/05/01 14:23:56;;;;;;;5.38;3.20;;;19.70;68.10;;;;;;2617198;46;20064;31
2023/05/01 14:26:36;;;;;;;4.40;3.10;;;19.70;68.70;;;;;;2621902;46;20034;31